Página principal
METAR-TAF:

METAR-TAF

Aeroportos :

Balkhash, Cazaquistão

latitude: 46-53-38N, longitude: 075-00-19E, altura: 440 m

Observação actual do tempo

O boletim foi feito há 13 horas e 42 minutos, às 11:30 UTC
Vento 14 kt de oeste
Temperatura 3°C
Humidade 60%
Pressão 1029 hPa
Visibilidade 10 km ou mais
Nuvens fragmentadasa uma altura de 4800 ft, Cumulonimbus.

METAR: UAAH 171130Z 26007MPS 9999 BKN048CB 03/M04 Q1029 NOSIG RMK QFE734/0979

Hora: 07:12 (01:12 UTC)

Previsão

O boletim foi feito há 14 horas e 10 minutos, às 11:02 UTC
Previsão válida de 17 às 12 UTC a 17 às 21 UTC
Vento 16 kt de oes-sudoeste com rajadas de 25 kt
Visibilidade 10 km ou mais
Nuvens fragmentadasa uma altura de 2000 ft, Cumulonimbus.
Nuvens fragmentadasa uma altura de 10000 ft

TAF: UAAH 171102Z 1712/1721 25008G13MPS 9999 BKN020CB BKN100

Observações e previsões do tempo de mais de 4000 aeroportos (mensagens METAR e TAF).

As estações disponíveis são os pontos amarelos e vermelhos sobre o mapa.

Mova o rato sobre o mapa para ver o nome da estação.

Depois clique no ponto para visualizar as observações e previsões meteorológicas.

Para alterar o mapa : clique nos botões verdes com uma cruz preta para aumentar o zoom; no botão verde com uma pitada de zoom; ou nas setas verdes para mapas adjacentes.


METAR-TAF: